Otsego, Michigan
Current Conditions -  °F | °C
As of 4:32 AM on Thursday 23 Oct 2014 (Local Time) from KAZO Reporting Station
Moderate Fog Moderate Fog  
Wind Chill: 30°   Ceiling: 100
Heat Index: 30°   Visibility: 0.25mi
Dew Point: 29°   Wind: 0mph
Humidity: 96%   Direction: NA
Pressure: 30.27"   Gusts: NA
Location:  42.46°N, 85.7°W
Report Text: KAZO 230832Z AUTO 00000KT 1/4SM R35/0800V1400FT FZFG VV001 M01/M02 A3027 RMK AO2 I1000 T10111017
Loading
Personal Weather Stations






























Interactive Weather Map
Tropical Storm Tracking
New forecast layout! Learn more

10-Day Weather Forecast

Advertisements
Track Severe Weather on mobile